Scottish Airport Reports

Civil airfields updated at H+20 and H+50
RAF airfields updated at H+50 only

EGPD - Aberdeen
Distance from station: NNE 19mi, 31km
Updated: 20/06/2018 04:20
Rain, Thunderstorm
Rain, Thunderstorm
 Wind from N
Wind: N 5 mph , 7 km/h
Temperature: 9°C
Wind Chill: 8°C
Dew Point: 9°C
Humidity: 100%
Barometer: 1011 hPa
Summary: Rain
Clouds: Thunderstorm
Visibility: 2 miles , 4 km
Cloud details: Few Clouds 400 ft
Partly cloudy 1300 ft
Mostly cloudy 2000 ft
2018/06/20 03:20 EGPD 200320Z AUTO 36004KT 3500 RA FEW004/// SCT013/// BKN020/// //////CB 09/09 Q1011
EGPN - Dundee
Distance from station: SW 41mi, 66km
Updated: 19/06/2018 20:20
NOT Current
Light rain, Partly cloudy
Light rain, Partly cloudy
 Wind from W
Wind: W 5 mph , 7 km/h
Temperature: 12°C
Dew Point: 9°C
Humidity: 82%
Barometer: 1015 hPa
Summary: Light rain
Clouds: Partly cloudy
Visibility: 6 miles , 10 km
Cloud details: Few Clouds 3000 ft
Partly cloudy 4800 ft
2018/06/19 19:20 EGPN 191920Z 26004KT 9999 -RA FEW030 SCT048 12/09 Q1015
 
EGQS - RAF Lossiemouth
Distance from station: NNW 63mi, 102km
Updated: 20/06/2018 03:50
Rain, Overcast
Rain, Overcast
 Wind from NE
Wind: NE 5 mph , 7 km/h
Temperature: 11°C
Dew Point: 8°C
Humidity: 82%
Barometer: 1011 hPa
Summary: Rain
Clouds: Overcast
Visibility: 3 miles , 5 km
Cloud details: Mostly cloudy 1400 ft
Mostly cloudy 3500 ft
Overcast 4200 ft
2018/06/20 02:50 EGQS 200250Z 05004KT 5000 RA BKN014 BKN035 OVC042 11/08 Q1011 GRN
EGPE - Inverness
Distance from station: WNW 73mi, 117km
Updated: 20/06/2018 04:20
Light rain, Mostly cloudy
Light rain, Mostly cloudy
 Wind from N
Wind: N 5 mph , 7 km/h
Temperature: 9°C
Wind Chill: 8°C
Dew Point: 8°C
Humidity: 94%
Barometer: 1011 hPa
Summary: Light rain
Clouds: Mostly cloudy
Visibility: 4 miles , 6 km
Cloud details: Few Clouds 600 ft
Partly cloudy 1200 ft
Mostly cloudy 3200 ft
2018/06/20 03:20 EGPE 200320Z 01004KT 350V060 6000 -RA FEW006 SCT012 BKN032 09/08 Q1011
 
EGPH - Edinburgh
Distance from station: SSW 77mi, 125km
Updated: 20/06/2018 04:20
Light rain, Overcast
Light rain, Overcast
 Wind from ENE
Wind: ENE 6 mph , 9 km/h
Temperature: 10°C
Wind Chill: 9°C
Dew Point: 10°C
Humidity: 100%
Barometer: 1009 hPa
Summary: Light rain
Clouds: Overcast
Visibility: 3 miles , 5 km
Cloud details: Overcast 300 ft
2018/06/20 03:20 EGPH 200320Z 07005KT 5000 -RA OVC003 10/10 Q1009
EGPC - Wick
Distance from station: NNW 107mi, 172km
Updated: 19/06/2018 20:20
NOT Current
Few Clouds
Few Clouds
 Wind from NW
Wind: NW 5 mph , 7 km/h
Temperature: 12°C
Dew Point: 8°C
Humidity: 77%
Barometer: 1014 hPa
Clouds: Few Clouds
Visibility: 6 miles , 10 km
Cloud details: Few Clouds 1200 ft
2018/06/19 19:20 EGPC 191920Z 31004KT 9999 FEW012 12/08 Q1014
 
EGPF - Glasgow
Distance from station: SW 107mi, 172km
Updated: 20/06/2018 04:20
Drizzle, Overcast
Drizzle, Overcast
 Wind from ENE
Wind: ENE 5 mph , 7 km/h
Temperature: 10°C
Wind Chill: 9°C
Dew Point: 10°C
Humidity: 100%
Barometer: 1009 hPa
Summary: Drizzle
Clouds: Overcast
Visibility: 1 mile , 2 km
Cloud details: Overcast 300 ft
2018/06/20 03:20 EGPF 200320Z AUTO 06004KT 1800 DZ OVC003 10/10 Q1009
EGPK - Prestwick
Distance from station: SW 130mi, 209km
Updated: 20/06/2018 03:50
Light rain, Mostly cloudy
Light rain, Mostly cloudy
 Wind from varies
Wind: varies 2 mph , 4 km/h
Temperature: 12°C
Dew Point: 12°C
Humidity: 100%
Barometer: 1009 hPa
Summary: Light rain
Clouds: Mostly cloudy
Visibility: 4 miles , 6 km
Cloud details: Partly cloudy 300 ft
Mostly cloudy 1200 ft
2018/06/20 02:50 EGPK 200250Z VRB02KT 6000 -RA SCT003 BKN012 12/12 Q1009
 
EGPA - Kirkwall, Orkney
Distance from station: N 140mi, 225km
Updated: 20/06/2018 03:50
Clear
Clear
 Wind from S
Wind: S 5 mph , 7 km/h
Temperature: 9°C
Wind Chill: 8°C
Dew Point: 7°C
Humidity: 87%
Barometer: 1012 hPa
Clouds: Clear
Visibility: 6 miles , 10 km
2018/06/20 02:50 EGPA 200250Z AUTO 19004KT 9999 NCD 09/07 Q1012
EGPO - Stornoway, Outer Hebrides
Distance from station: WNW 169mi, 273km
Updated: 20/06/2018 04:20
Clear
Clear
 Wind from WNW
Wind: WNW 2 mph , 4 km/h
Temperature: 8°C
Dew Point: 7°C
Humidity: 93%
Barometer: 1012 hPa
Clouds: Clear
Visibility: 6 miles , 10 km
2018/06/20 03:20 EGPO 200320Z AUTO 30002KT 9999 NCD 08/07 Q1012
 
EGPI - Islay, Inner Hebrides
Distance from station: WSW 172mi, 276km
Updated: 20/06/2018 03:50
Mist, Overcast
Mist, Overcast
 Wind from varies
Wind: varies 6 mph , 9 km/h
Temperature: 12°C
Dew Point: 12°C
Humidity: 100%
Barometer: 1008 hPa
Summary: Mist
Clouds: Overcast
Visibility: 2 miles , 4 km
Cloud details: Overcast 300 ft
2018/06/20 02:50 EGPI 200250Z AUTO VRB05KT 3900 BR OVC003/// 12/12 Q1008
EGPU - Tiree, Inner Hebrides
Distance from station: W 172mi, 276km
Updated: 20/06/2018 03:50
Rain, Mostly cloudy
Rain, Mostly cloudy
 Wind from varies
Wind: varies 20 mph , 31 km/h
Temperature: 9°C
Wind Chill: 5°C
Dew Point: 8°C
Humidity: 94%
Barometer: 1011 hPa
Summary: Rain
Clouds: Mostly cloudy
Visibility: 6 miles , 10 km
Cloud details: Few Clouds 2000 ft
Mostly cloudy 4800 ft
2018/06/20 02:50 EGPU 200250Z AUTO VRB17KT 9999 RA FEW020/// BKN048/// 09/08 Q1011
 
EGPB - Sumburgh, Shetland
Distance from station: NNE 208mi, 332km
Updated: 20/06/2018 04:20
Clear
Clear
 Wind from W
Wind: W 8 mph , 13 km/h
Temperature: 9°C
Wind Chill: 7°C
Dew Point: 7°C
Humidity: 87%
Barometer: 1012 hPa
Clouds: Clear
Visibility: 6 miles , 10 km
2018/06/20 03:20 EGPB 200320Z AUTO 26007KT 9999 NCD 09/07 Q1012
EGPM - Scatsa, Shetland
Distance from station: NNE 245mi, 392km
Updated: 20/06/2018 04:20
Few Clouds
Few Clouds
 Wind from WSW
Wind: WSW 9 mph , 15 km/h
Temperature: 7°C
Wind Chill: 4°C
Dew Point: 4°C
Humidity: 81%
Barometer: 1011 hPa
Clouds: Few Clouds
Visibility: 6 miles , 10 km
Cloud details: Few Clouds 2200 ft
2018/06/20 03:20 EGPM 200320Z AUTO 24008KT 9999 FEW022/// 07/04 Q1011
-->